sensor_id;sensor_type;location;lat;lon;timestamp;pressure;altitude;pressure_sealevel;temperature;humidity
43701;BME280;58809;47.984;7.964;2023-02-01T00:02:56;98074.09;;;4.43;80.91
43701;BME280;58809;47.984;7.964;2023-02-01T00:05:58;98073.88;;;4.46;80.33
43701;BME280;58809;47.984;7.964;2023-02-01T00:09:01;98066.72;;;4.48;79.82
43701;BME280;58809;47.984;7.964;2023-02-01T00:12:02;98069.22;;;4.50;79.87
43701;BME280;58809;47.984;7.964;2023-02-01T00:15:05;98061.84;;;4.43;79.84
43701;BME280;58809;47.984;7.964;2023-02-01T00:18:06;98050.66;;;4.41;79.76
43701;BME280;58809;47.984;7.964;2023-02-01T00:21:10;98050.91;;;4.38;80.48
43701;BME280;58809;47.984;7.964;2023-02-01T00:24:12;98052.81;;;4.36;80.45
43701;BME280;58809;47.984;7.964;2023-02-01T00:27:14;98042.31;;;4.36;79.99
43701;BME280;58809;47.984;7.964;2023-02-01T00:30:18;98040.53;;;4.37;80.31
43701;BME280;58809;47.984;7.964;2023-02-01T00:33:21;98039.00;;;4.34;80.49
43701;BME280;58809;47.984;7.964;2023-02-01T00:36:22;98041.03;;;4.31;79.89
43701;BME280;58809;47.984;7.964;2023-02-01T00:39:24;98034.94;;;4.30;80.46
43701;BME280;58809;47.984;7.964;2023-02-01T00:42:25;98032.19;;;4.32;79.76
43701;BME280;58809;47.984;7.964;2023-02-01T00:45:27;98037.19;;;4.35;80.29
43701;BME280;58809;47.984;7.964;2023-02-01T00:48:28;98037.31;;;4.33;79.46
43701;BME280;58809;47.984;7.964;2023-02-01T00:51:30;98024.72;;;4.27;80.06
43701;BME280;58809;47.984;7.964;2023-02-01T00:54:32;98040.06;;;4.32;79.67
43701;BME280;58809;47.984;7.964;2023-02-01T00:57:34;98033.88;;;4.33;79.86
43701;BME280;58809;47.984;7.964;2023-02-01T01:00:36;98036.59;;;4.31;79.67
43701;BME280;58809;47.984;7.964;2023-02-01T01:03:41;98034.59;;;4.35;79.96
43701;BME280;58809;47.984;7.964;2023-02-01T01:06:42;98034.47;;;4.36;80.05
43701;BME280;58809;47.984;7.964;2023-02-01T01:09:44;98034.69;;;4.33;80.12
43701;BME280;58809;47.984;7.964;2023-02-01T01:12:45;98034.00;;;4.31;79.72
43701;BME280;58809;47.984;7.964;2023-02-01T01:15:46;98026.94;;;4.32;80.13
43701;BME280;58809;47.984;7.964;2023-02-01T01:18:49;98021.59;;;4.33;79.75
43701;BME280;58809;47.984;7.964;2023-02-01T01:21:50;98024.91;;;4.35;80.36
43701;BME280;58809;47.984;7.964;2023-02-01T01:24:52;98016.81;;;4.38;80.34
43701;BME280;58809;47.984;7.964;2023-02-01T01:27:53;98027.44;;;4.37;79.95
43701;BME280;58809;47.984;7.964;2023-02-01T01:30:55;98025.03;;;4.34;80.13
43701;BME280;58809;47.984;7.964;2023-02-01T01:33:58;98026.94;;;4.32;79.67
43701;BME280;58809;47.984;7.964;2023-02-01T01:37:00;98029.56;;;4.32;79.63
43701;BME280;58809;47.984;7.964;2023-02-01T01:40:04;98026.13;;;4.31;79.41
43701;BME280;58809;47.984;7.964;2023-02-01T01:43:13;98018.38;;;4.30;79.40
43701;BME280;58809;47.984;7.964;2023-02-01T01:46:17;98014.94;;;4.29;79.76
43701;BME280;58809;47.984;7.964;2023-02-01T01:49:25;98009.00;;;4.27;79.31
43701;BME280;58809;47.984;7.964;2023-02-01T01:52:27;98013.25;;;4.28;79.57
43701;BME280;58809;47.984;7.964;2023-02-01T01:55:32;98009.22;;;4.24;79.73
43701;BME280;58809;47.984;7.964;2023-02-01T01:58:35;98000.75;;;4.32;79.30
43701;BME280;58809;47.984;7.964;2023-02-01T02:01:36;98010.28;;;4.33;79.67
43701;BME280;58809;47.984;7.964;2023-02-01T02:04:38;98018.25;;;4.31;78.86
43701;BME280;58809;47.984;7.964;2023-02-01T02:07:43;98010.75;;;4.27;79.28
43701;BME280;58809;47.984;7.964;2023-02-01T02:10:50;98006.38;;;4.27;79.23
43701;BME280;58809;47.984;7.964;2023-02-01T02:14:02;98005.41;;;4.28;79.42
43701;BME280;58809;47.984;7.964;2023-02-01T02:17:21;98006.38;;;4.27;79.18
43701;BME280;58809;47.984;7.964;2023-02-01T02:23:37;97999.69;;;4.23;79.51
43701;BME280;58809;47.984;7.964;2023-02-01T02:27:14;97989.34;;;4.21;80.00
43701;BME280;58809;47.984;7.964;2023-02-01T02:30:35;97982.66;;;4.17;79.58
43701;BME280;58809;47.984;7.964;2023-02-01T02:33:57;97981.84;;;4.17;79.94
43701;BME280;58809;47.984;7.964;2023-02-01T02:37:11;97986.38;;;4.15;79.48
43701;BME280;58809;47.984;7.964;2023-02-01T02:40:29;97975.53;;;4.08;80.32
43701;BME280;58809;47.984;7.964;2023-02-01T02:43:46;97990.09;;;4.12;79.89
43701;BME280;58809;47.984;7.964;2023-02-01T02:47:15;97994.22;;;4.15;79.83
43701;BME280;58809;47.984;7.964;2023-02-01T02:50:37;97998.88;;;4.11;79.99
43701;BME280;58809;47.984;7.964;2023-02-01T02:54:11;97989.34;;;4.10;80.78
43701;BME280;58809;47.984;7.964;2023-02-01T02:57:38;97985.66;;;4.13;80.41
43701;BME280;58809;47.984;7.964;2023-02-01T03:01:00;97985.78;;;4.11;80.38
43701;BME280;58809;47.984;7.964;2023-02-01T03:04:21;97967.09;;;4.04;81.37
43701;BME280;58809;47.984;7.964;2023-02-01T03:13:52;97971.16;;;4.09;82.02
43701;BME280;58809;47.984;7.964;2023-02-01T03:16:59;97975.44;;;4.10;81.34
43701;BME280;58809;47.984;7.964;2023-02-01T03:20:04;97965.91;;;4.09;81.41
43701;BME280;58809;47.984;7.964;2023-02-01T03:23:07;97970.31;;;4.08;81.42
43701;BME280;58809;47.984;7.964;2023-02-01T03:26:13;97977.34;;;4.08;81.73
43701;BME280;58809;47.984;7.964;2023-02-01T03:29:24;97977.34;;;4.08;82.47
43701;BME280;58809;47.984;7.964;2023-02-01T03:32:29;97990.44;;;4.08;82.07
43701;BME280;58809;47.984;7.964;2023-02-01T03:39:08;97991.25;;;4.08;83.31
43701;BME280;58809;47.984;7.964;2023-02-01T03:42:16;98009.13;;;4.03;83.84
43701;BME280;58809;47.984;7.964;2023-02-01T03:45:36;98006.03;;;3.98;84.34
43701;BME280;58809;47.984;7.964;2023-02-01T03:48:43;98010.69;;;3.94;84.83
43701;BME280;58809;47.984;7.964;2023-02-01T03:51:46;97999.25;;;3.95;85.06
43701;BME280;58809;47.984;7.964;2023-02-01T03:54:50;98002.56;;;3.97;84.96
43701;BME280;58809;47.984;7.964;2023-02-01T03:57:57;98007.94;;;3.96;84.80
43701;BME280;58809;47.984;7.964;2023-02-01T04:01:00;98024.72;;;3.93;85.23
43701;BME280;58809;47.984;7.964;2023-02-01T04:04:05;98021.50;;;3.90;85.20
43701;BME280;58809;47.984;7.964;2023-02-01T04:07:07;98019.75;;;3.90;85.46
43701;BME280;58809;47.984;7.964;2023-02-01T04:10:09;98021.63;;;3.88;86.34
43701;BME280;58809;47.984;7.964;2023-02-01T04:13:12;98026.25;;;3.84;86.61
43701;BME280;58809;47.984;7.964;2023-02-01T04:16:13;98026.63;;;3.80;86.45
43701;BME280;58809;47.984;7.964;2023-02-01T04:19:15;98031.97;;;3.78;86.69
43701;BME280;58809;47.984;7.964;2023-02-01T04:22:16;98037.44;;;3.75;87.12
43701;BME280;58809;47.984;7.964;2023-02-01T04:25:18;98028.75;;;3.75;86.79
43701;BME280;58809;47.984;7.964;2023-02-01T04:28:20;97991.75;;;3.68;87.05
43701;BME280;58809;47.984;7.964;2023-02-01T04:31:22;97999.72;;;3.66;87.99
43701;BME280;58809;47.984;7.964;2023-02-01T04:34:27;97991.03;;;3.66;88.00
43701;BME280;58809;47.984;7.964;2023-02-01T04:37:28;97998.41;;;3.61;87.99
43701;BME280;58809;47.984;7.964;2023-02-01T04:40:30;97986.28;;;3.60;88.16
43701;BME280;58809;47.984;7.964;2023-02-01T04:43:31;97995.66;;;3.62;88.05
43701;BME280;58809;47.984;7.964;2023-02-01T04:46:33;97987.22;;;3.59;88.17
43701;BME280;58809;47.984;7.964;2023-02-01T04:49:35;97996.63;;;3.61;88.08
43701;BME280;58809;47.984;7.964;2023-02-01T04:52:37;97985.34;;;3.61;88.80
43701;BME280;58809;47.984;7.964;2023-02-01T04:55:38;97979.03;;;3.63;88.21
43701;BME280;58809;47.984;7.964;2023-02-01T04:58:40;97973.19;;;3.49;88.40
43701;BME280;58809;47.984;7.964;2023-02-01T05:01:41;97979.13;;;3.39;89.52
43701;BME280;58809;47.984;7.964;2023-02-01T05:04:43;97989.59;;;3.39;89.63
43701;BME280;58809;47.984;7.964;2023-02-01T05:07:46;97989.22;;;3.44;90.02
43701;BME280;58809;47.984;7.964;2023-02-01T05:10:48;97985.56;;;3.46;89.60
43701;BME280;58809;47.984;7.964;2023-02-01T05:13:50;97985.31;;;3.50;89.17
43701;BME280;58809;47.984;7.964;2023-02-01T05:16:51;97980.94;;;3.50;89.43
43701;BME280;58809;47.984;7.964;2023-02-01T05:19:53;97994.34;;;3.45;89.38
43701;BME280;58809;47.984;7.964;2023-02-01T05:22:54;97999.34;;;3.49;89.69
43701;BME280;58809;47.984;7.964;2023-02-01T05:25:59;97988.63;;;3.52;89.26
43701;BME280;58809;47.984;7.964;2023-02-01T05:29:03;97990.69;;;3.59;89.11
43701;BME280;58809;47.984;7.964;2023-02-01T05:32:04;98000.91;;;3.62;89.48
43701;BME280;58809;47.984;7.964;2023-02-01T05:35:22;98019.81;;;3.66;88.73
43701;BME280;58809;47.984;7.964;2023-02-01T05:38:24;98020.66;;;3.66;89.24
43701;BME280;58809;47.984;7.964;2023-02-01T05:41:25;98029.47;;;3.65;89.30
43701;BME280;58809;47.984;7.964;2023-02-01T05:44:27;98030.19;;;3.67;89.13
43701;BME280;58809;47.984;7.964;2023-02-01T05:47:28;98021.72;;;3.64;89.43
43701;BME280;58809;47.984;7.964;2023-02-01T05:50:30;98028.97;;;3.60;89.57
43701;BME280;58809;47.984;7.964;2023-02-01T05:53:32;98039.44;;;3.60;89.61
43701;BME280;58809;47.984;7.964;2023-02-01T05:56:33;98043.13;;;3.58;90.57
43701;BME280;58809;47.984;7.964;2023-02-01T05:59:35;98042.31;;;3.57;90.37
43701;BME280;58809;47.984;7.964;2023-02-01T06:02:38;98050.88;;;3.59;90.24
43701;BME280;58809;47.984;7.964;2023-02-01T06:05:39;98044.44;;;3.52;91.14
43701;BME280;58809;47.984;7.964;2023-02-01T06:08:41;98042.66;;;3.53;91.18
43701;BME280;58809;47.984;7.964;2023-02-01T06:11:43;98037.53;;;3.51;90.67
43701;BME280;58809;47.984;7.964;2023-02-01T06:14:44;98043.00;;;3.48;91.09
43701;BME280;58809;47.984;7.964;2023-02-01T06:17:46;98035.16;;;3.48;91.00
43701;BME280;58809;47.984;7.964;2023-02-01T06:20:58;98046.44;;;3.49;91.53
43701;BME280;58809;47.984;7.964;2023-02-01T06:24:03;98040.13;;;3.51;90.81
43701;BME280;58809;47.984;7.964;2023-02-01T06:27:05;98033.47;;;3.47;90.98
43701;BME280;58809;47.984;7.964;2023-02-01T06:30:07;98027.97;;;3.39;91.88
43701;BME280;58809;47.984;7.964;2023-02-01T06:33:09;98032.53;;;3.48;91.23
43701;BME280;58809;47.984;7.964;2023-02-01T06:36:11;98032.06;;;3.43;91.73
43701;BME280;58809;47.984;7.964;2023-02-01T06:39:17;98045.84;;;3.45;91.61
43701;BME280;58809;47.984;7.964;2023-02-01T06:42:18;98042.03;;;3.49;91.05
43701;BME280;58809;47.984;7.964;2023-02-01T06:45:20;98052.28;;;3.52;90.34
43701;BME280;58809;47.984;7.964;2023-02-01T06:48:21;98050.16;;;3.57;90.43
43701;BME280;58809;47.984;7.964;2023-02-01T06:51:25;98049.69;;;3.63;89.23
43701;BME280;58809;47.984;7.964;2023-02-01T06:54:27;98046.97;;;3.65;88.80
43701;BME280;58809;47.984;7.964;2023-02-01T06:57:29;98042.53;;;3.65;88.60
43701;BME280;58809;47.984;7.964;2023-02-01T07:00:32;98046.84;;;3.66;88.12
43701;BME280;58809;47.984;7.964;2023-02-01T07:03:33;98030.19;;;3.67;87.88
43701;BME280;58809;47.984;7.964;2023-02-01T07:06:35;98022.81;;;3.73;88.03
43701;BME280;58809;47.984;7.964;2023-02-01T07:09:36;98028.03;;;3.73;87.38
43701;BME280;58809;47.984;7.964;2023-02-01T07:12:38;98028.53;;;3.78;87.05
43701;BME280;58809;47.984;7.964;2023-02-01T07:15:40;98045.31;;;3.87;86.27
43701;BME280;58809;47.984;7.964;2023-02-01T07:18:42;98037.69;;;3.95;85.24
43701;BME280;58809;47.984;7.964;2023-02-01T07:21:43;98041.84;;;3.97;85.00
43701;BME280;58809;47.984;7.964;2023-02-01T07:24:45;98056.50;;;4.00;84.24
43701;BME280;58809;47.984;7.964;2023-02-01T07:27:46;98059.94;;;4.00;84.72
43701;BME280;58809;47.984;7.964;2023-02-01T07:30:48;98055.19;;;4.05;85.07
43701;BME280;58809;47.984;7.964;2023-02-01T07:33:52;98054.81;;;4.10;84.60
43701;BME280;58809;47.984;7.964;2023-02-01T07:36:53;98065.44;;;4.09;84.38
43701;BME280;58809;47.984;7.964;2023-02-01T07:39:55;98065.19;;;4.12;84.15
43701;BME280;58809;47.984;7.964;2023-02-01T07:42:57;98054.25;;;4.18;83.89
43701;BME280;58809;47.984;7.964;2023-02-01T07:45:59;98054.25;;;4.18;83.78
43701;BME280;58809;47.984;7.964;2023-02-01T07:49:00;98052.47;;;4.18;83.09
43701;BME280;58809;47.984;7.964;2023-02-01T07:52:02;98062.56;;;4.23;83.00
43701;BME280;58809;47.984;7.964;2023-02-01T07:55:04;98058.78;;;4.27;82.78
43701;BME280;58809;47.984;7.964;2023-02-01T07:58:05;98067.34;;;4.18;82.96
43701;BME280;58809;47.984;7.964;2023-02-01T08:01:20;98053.53;;;4.27;82.82
43701;BME280;58809;47.984;7.964;2023-02-01T08:04:25;98059.69;;;4.37;82.54
43701;BME280;58809;47.984;7.964;2023-02-01T08:07:27;98065.78;;;4.38;82.01
43701;BME280;58809;47.984;7.964;2023-02-01T08:10:28;98078.28;;;4.46;82.36
43701;BME280;58809;47.984;7.964;2023-02-01T08:13:30;98061.59;;;4.58;82.11
43701;BME280;58809;47.984;7.964;2023-02-01T08:16:32;98060.13;;;4.65;81.18
43701;BME280;58809;47.984;7.964;2023-02-01T08:19:36;98084.78;;;4.74;81.52
43701;BME280;58809;47.984;7.964;2023-02-01T08:22:37;98071.59;;;4.64;81.16
43701;BME280;58809;47.984;7.964;2023-02-01T08:25:39;98072.31;;;4.55;81.73
43701;BME280;58809;47.984;7.964;2023-02-01T08:28:47;98071.81;;;4.61;81.80
43701;BME280;58809;47.984;7.964;2023-02-01T08:31:49;98068.97;;;4.64;81.97
43701;BME280;58809;47.984;7.964;2023-02-01T08:34:53;98075.03;;;4.65;81.48
43701;BME280;58809;47.984;7.964;2023-02-01T08:37:54;98074.56;;;4.59;80.76
43701;BME280;58809;47.984;7.964;2023-02-01T08:40:56;98082.06;;;4.64;80.95
43701;BME280;58809;47.984;7.964;2023-02-01T08:43:57;98079.22;;;4.67;80.49
43701;BME280;58809;47.984;7.964;2023-02-01T08:46:59;98088.50;;;4.71;80.91
43701;BME280;58809;47.984;7.964;2023-02-01T08:50:01;98092.75;;;4.72;80.57
43701;BME280;58809;47.984;7.964;2023-02-01T08:53:02;98093.00;;;4.80;79.72
43701;BME280;58809;47.984;7.964;2023-02-01T08:56:04;98098.72;;;4.74;80.22
43701;BME280;58809;47.984;7.964;2023-02-01T08:59:06;98104.22;;;4.71;80.59
43701;BME280;58809;47.984;7.964;2023-02-01T09:02:12;98094.19;;;4.65;80.40
43701;BME280;58809;47.984;7.964;2023-02-01T09:05:14;98104.09;;;4.61;81.05
43701;BME280;58809;47.984;7.964;2023-02-01T09:08:17;98104.09;;;4.61;80.97
43701;BME280;58809;47.984;7.964;2023-02-01T09:11:21;98110.66;;;4.67;81.19
43701;BME280;58809;47.984;7.964;2023-02-01T09:14:23;98111.00;;;4.74;81.33
43701;BME280;58809;47.984;7.964;2023-02-01T09:17:26;98107.56;;;4.73;81.63
43701;BME280;58809;47.984;7.964;2023-02-01T09:20:32;98094.06;;;4.78;82.50
43701;BME280;58809;47.984;7.964;2023-02-01T09:23:34;98093.78;;;4.92;82.18
43701;BME280;58809;47.984;7.964;2023-02-01T09:26:36;98103.94;;;4.97;81.79
43701;BME280;58809;47.984;7.964;2023-02-01T09:29:38;98104.50;;;5.00;82.09
43701;BME280;58809;47.984;7.964;2023-02-01T09:32:39;98096.84;;;5.09;81.93
43701;BME280;58809;47.984;7.964;2023-02-01T09:35:41;98092.44;;;5.09;81.39
43701;BME280;58809;47.984;7.964;2023-02-01T09:38:42;98102.09;;;5.09;81.64
43701;BME280;58809;47.984;7.964;2023-02-01T09:46:16;98099.00;;;5.04;82.25
43701;BME280;58809;47.984;7.964;2023-02-01T09:49:28;98099.59;;;5.07;82.26
43701;BME280;58809;47.984;7.964;2023-02-01T09:56:07;98098.25;;;5.13;81.01
43701;BME280;58809;47.984;7.964;2023-02-01T10:02:27;98097.84;;;5.29;80.25
43701;BME280;58809;47.984;7.964;2023-02-01T10:05:47;98103.38;;;5.68;78.42
43701;BME280;58809;47.984;7.964;2023-02-01T10:22:30;98112.66;;;5.51;77.71
43701;BME280;58809;47.984;7.964;2023-02-01T10:26:04;98129.63;;;5.68;77.72
43701;BME280;58809;47.984;7.964;2023-02-01T10:29:16;98133.00;;;5.70;78.05
43701;BME280;58809;47.984;7.964;2023-02-01T10:32:22;98133.56;;;5.73;77.39
43701;BME280;58809;47.984;7.964;2023-02-01T10:35:29;98134.47;;;5.63;78.46
43701;BME280;58809;47.984;7.964;2023-02-01T10:38:32;98114.25;;;5.42;79.25
43701;BME280;58809;47.984;7.964;2023-02-01T10:41:36;98131.91;;;5.40;80.56
43701;BME280;58809;47.984;7.964;2023-02-01T10:44:43;98141.88;;;5.25;81.64
43701;BME280;58809;47.984;7.964;2023-02-01T10:47:49;98137.59;;;5.13;82.83
43701;BME280;58809;47.984;7.964;2023-02-01T10:50:56;98138.59;;;5.12;83.21
43701;BME280;58809;47.984;7.964;2023-02-01T10:54:17;98112.19;;;5.25;82.50
43701;BME280;58809;47.984;7.964;2023-02-01T10:57:24;98114.00;;;5.45;82.03
43701;BME280;58809;47.984;7.964;2023-02-01T11:00:28;98115.22;;;5.41;81.78
43701;BME280;58809;47.984;7.964;2023-02-01T11:06:52;98111.13;;;5.48;81.46
43701;BME280;58809;47.984;7.964;2023-02-01T11:09:55;98115.38;;;5.61;79.47
43701;BME280;58809;47.984;7.964;2023-02-01T11:12:57;98123.88;;;5.74;78.00
43701;BME280;58809;47.984;7.964;2023-02-01T11:16:01;98126.19;;;5.88;77.60
43701;BME280;58809;47.984;7.964;2023-02-01T11:19:04;98114.25;;;5.95;77.11
43701;BME280;58809;47.984;7.964;2023-02-01T11:22:06;98105.97;;;6.00;77.40
43701;BME280;58809;47.984;7.964;2023-02-01T11:25:09;98105.75;;;5.92;76.91
43701;BME280;58809;47.984;7.964;2023-02-01T11:28:12;98105.19;;;5.88;77.38
43701;BME280;58809;47.984;7.964;2023-02-01T11:31:13;98102.28;;;5.91;76.54
43701;BME280;58809;47.984;7.964;2023-02-01T11:34:21;98108.75;;;5.87;76.68
43701;BME280;58809;47.984;7.964;2023-02-01T11:37:30;98111.63;;;5.95;76.56
43701;BME280;58809;47.984;7.964;2023-02-01T11:40:37;98105.84;;;6.02;76.26
43701;BME280;58809;47.984;7.964;2023-02-01T11:43:51;98103.44;;;6.20;75.42
43701;BME280;58809;47.984;7.964;2023-02-01T11:46:53;98098.06;;;6.21;75.37
43701;BME280;58809;47.984;7.964;2023-02-01T11:50:00;98093.16;;;6.07;74.87
43701;BME280;58809;47.984;7.964;2023-02-01T11:56:21;98074.69;;;6.28;74.30
43701;BME280;58809;47.984;7.964;2023-02-01T11:59:43;98077.75;;;6.23;73.54
43701;BME280;58809;47.984;7.964;2023-02-01T12:06:56;98071.72;;;6.42;72.60
43701;BME280;58809;47.984;7.964;2023-02-01T12:13:21;98071.94;;;6.29;69.84
43701;BME280;58809;47.984;7.964;2023-02-01T12:23:37;98055.44;;;6.58;69.13
43701;BME280;58809;47.984;7.964;2023-02-01T12:27:19;98045.34;;;6.73;69.49
43701;BME280;58809;47.984;7.964;2023-02-01T12:30:39;98044.41;;;6.93;69.08
43701;BME280;58809;47.984;7.964;2023-02-01T12:34:06;98048.28;;;6.80;68.08
43701;BME280;58809;47.984;7.964;2023-02-01T12:37:44;98068.16;;;6.63;67.84
43701;BME280;58809;47.984;7.964;2023-02-01T12:47:49;98032.72;;;5.86;71.00
43701;BME280;58809;47.984;7.964;2023-02-01T12:51:08;98028.94;;;5.78;71.95
43701;BME280;58809;47.984;7.964;2023-02-01T12:54:34;98034.34;;;5.77;72.35
43701;BME280;58809;47.984;7.964;2023-02-01T12:57:40;98042.78;;;5.81;73.09
43701;BME280;58809;47.984;7.964;2023-02-01T13:00:47;98023.19;;;5.64;72.68
43701;BME280;58809;47.984;7.964;2023-02-01T13:03:59;98038.34;;;5.50;73.96
43701;BME280;58809;47.984;7.964;2023-02-01T13:10:24;98031.59;;;5.36;74.62
43701;BME280;58809;47.984;7.964;2023-02-01T13:13:46;98031.59;;;5.36;75.08
43701;BME280;58809;47.984;7.964;2023-02-01T13:16:52;98040.19;;;5.38;74.82
43701;BME280;58809;47.984;7.964;2023-02-01T13:23:26;98021.25;;;5.35;74.29
43701;BME280;58809;47.984;7.964;2023-02-01T13:26:28;98021.19;;;5.46;74.99
43701;BME280;58809;47.984;7.964;2023-02-01T13:29:31;98025.38;;;5.58;73.66
43701;BME280;58809;47.984;7.964;2023-02-01T13:32:52;98018.03;;;5.52;73.96
43701;BME280;58809;47.984;7.964;2023-02-01T13:39:56;98034.38;;;5.35;74.29
43701;BME280;58809;47.984;7.964;2023-02-01T13:43:25;98023.78;;;5.25;74.10
43701;BME280;58809;47.984;7.964;2023-02-01T13:46:28;98025.84;;;5.21;73.93
43701;BME280;58809;47.984;7.964;2023-02-01T13:49:38;98033.69;;;5.21;72.75
43701;BME280;58809;47.984;7.964;2023-02-01T13:52:43;98032.41;;;5.16;73.00
43701;BME280;58809;47.984;7.964;2023-02-01T13:56:18;98031.19;;;5.20;73.85
43701;BME280;58809;47.984;7.964;2023-02-01T14:12:49;98020.78;;;5.30;73.69
43701;BME280;58809;47.984;7.964;2023-02-01T14:19:08;98039.81;;;5.22;74.23
43701;BME280;58809;47.984;7.964;2023-02-01T14:25:32;98042.72;;;5.08;74.07
43701;BME280;58809;47.984;7.964;2023-02-01T14:28:39;98057.59;;;5.07;73.33
43701;BME280;58809;47.984;7.964;2023-02-01T14:35:16;98055.88;;;4.96;73.66
43701;BME280;58809;47.984;7.964;2023-02-01T14:38:20;98059.56;;;4.94;73.34
43701;BME280;58809;47.984;7.964;2023-02-01T14:41:29;98059.09;;;4.89;73.26
43701;BME280;58809;47.984;7.964;2023-02-01T14:44:34;98074.84;;;4.89;73.10
43701;BME280;58809;47.984;7.964;2023-02-01T14:47:37;98063.75;;;4.85;73.07
43701;BME280;58809;47.984;7.964;2023-02-01T14:50:44;98045.28;;;4.87;73.68
43701;BME280;58809;47.984;7.964;2023-02-01T14:53:48;98029.44;;;4.88;73.59
43701;BME280;58809;47.984;7.964;2023-02-01T14:56:51;98051.94;;;4.91;73.53
43701;BME280;58809;47.984;7.964;2023-02-01T15:00:07;98042.56;;;4.88;73.73
43701;BME280;58809;47.984;7.964;2023-02-01T15:03:25;98047.22;;;4.85;73.68
43701;BME280;58809;47.984;7.964;2023-02-01T15:06:37;98052.44;;;4.85;74.48
43701;BME280;58809;47.984;7.964;2023-02-01T15:09:44;98049.94;;;4.83;74.33
43701;BME280;58809;47.984;7.964;2023-02-01T15:12:47;98048.19;;;4.84;73.95
43701;BME280;58809;47.984;7.964;2023-02-01T15:16:04;98043.88;;;4.82;73.85
43701;BME280;58809;47.984;7.964;2023-02-01T15:19:07;98043.88;;;4.82;74.06
43701;BME280;58809;47.984;7.964;2023-02-01T15:22:18;98040.78;;;4.77;74.61
43701;BME280;58809;47.984;7.964;2023-02-01T15:25:23;98052.00;;;4.79;74.88
43701;BME280;58809;47.984;7.964;2023-02-01T15:28:26;98050.47;;;4.77;74.76
43701;BME280;58809;47.984;7.964;2023-02-01T15:31:42;98053.06;;;4.77;74.97
43701;BME280;58809;47.984;7.964;2023-02-01T15:34:49;98060.13;;;4.76;75.23
43701;BME280;58809;47.984;7.964;2023-02-01T15:37:51;98052.25;;;4.76;75.61
43701;BME280;58809;47.984;7.964;2023-02-01T15:44:24;98062.25;;;4.82;74.49
43701;BME280;58809;47.984;7.964;2023-02-01T15:47:30;98064.63;;;4.86;73.66
43701;BME280;58809;47.984;7.964;2023-02-01T15:50:33;98064.34;;;4.89;73.34
43701;BME280;58809;47.984;7.964;2023-02-01T15:53:34;98060.56;;;4.93;73.19
43701;BME280;58809;47.984;7.964;2023-02-01T15:56:39;98068.28;;;4.94;72.57
43701;BME280;58809;47.984;7.964;2023-02-01T15:59:43;98056.38;;;4.90;72.29
43701;BME280;58809;47.984;7.964;2023-02-01T16:02:54;98074.03;;;4.88;72.11
43701;BME280;58809;47.984;7.964;2023-02-01T16:05:58;98061.41;;;4.82;72.36
43701;BME280;58809;47.984;7.964;2023-02-01T16:09:09;98090.25;;;4.82;72.15
43701;BME280;58809;47.984;7.964;2023-02-01T16:12:32;98084.91;;;4.84;72.49
43701;BME280;58809;47.984;7.964;2023-02-01T16:15:36;98076.28;;;4.81;73.10
43701;BME280;58809;47.984;7.964;2023-02-01T16:18:38;98086.94;;;4.80;72.78
43701;BME280;58809;47.984;7.964;2023-02-01T16:21:39;98084.44;;;4.78;73.31
43701;BME280;58809;47.984;7.964;2023-02-01T16:24:41;98096.84;;;4.76;73.94
43701;BME280;58809;47.984;7.964;2023-02-01T16:27:42;98105.63;;;4.75;73.34
43701;BME280;58809;47.984;7.964;2023-02-01T16:30:44;98104.53;;;4.78;73.71
43701;BME280;58809;47.984;7.964;2023-02-01T16:33:48;98120.44;;;4.76;74.41
43701;BME280;58809;47.984;7.964;2023-02-01T16:36:50;98110.88;;;4.75;74.33
43701;BME280;58809;47.984;7.964;2023-02-01T16:39:53;98109.59;;;4.70;75.33
43701;BME280;58809;47.984;7.964;2023-02-01T16:42:55;98116.50;;;4.71;76.05
43701;BME280;58809;47.984;7.964;2023-02-01T16:46:00;98112.31;;;4.68;76.66
43701;BME280;58809;47.984;7.964;2023-02-01T16:49:04;98114.03;;;4.58;77.67
43701;BME280;58809;47.984;7.964;2023-02-01T16:52:14;98119.50;;;4.55;77.60
43701;BME280;58809;47.984;7.964;2023-02-01T16:55:17;98111.63;;;4.55;78.04
43701;BME280;58809;47.984;7.964;2023-02-01T16:58:20;98117.81;;;4.54;77.90
43701;BME280;58809;47.984;7.964;2023-02-01T17:01:22;98102.09;;;4.54;77.71
43701;BME280;58809;47.984;7.964;2023-02-01T17:04:24;98111.50;;;4.56;77.95
43701;BME280;58809;47.984;7.964;2023-02-01T17:07:26;98091.38;;;4.57;77.08
43701;BME280;58809;47.984;7.964;2023-02-01T17:10:28;98101.94;;;4.67;77.11
43701;BME280;58809;47.984;7.964;2023-02-01T17:13:35;98106.38;;;4.66;76.40
43701;BME280;58809;47.984;7.964;2023-02-01T17:16:37;98106.97;;;4.70;76.54
43701;BME280;58809;47.984;7.964;2023-02-01T17:19:39;98114.00;;;4.69;74.90
43701;BME280;58809;47.984;7.964;2023-02-01T17:22:40;98117.81;;;4.76;74.36
43701;BME280;58809;47.984;7.964;2023-02-01T17:25:42;98121.72;;;4.82;74.51
43701;BME280;58809;47.984;7.964;2023-02-01T17:28:43;98122.44;;;4.84;74.40
43701;BME280;58809;47.984;7.964;2023-02-01T17:31:47;98119.00;;;4.84;73.88
43701;BME280;58809;47.984;7.964;2023-02-01T17:34:50;98117.41;;;4.81;73.97
43701;BME280;58809;47.984;7.964;2023-02-01T17:37:52;98120.16;;;4.79;73.78
43701;BME280;58809;47.984;7.964;2023-02-01T17:40:53;98115.19;;;4.76;73.61
43701;BME280;58809;47.984;7.964;2023-02-01T17:43:55;98118.41;;;4.80;73.78
43701;BME280;58809;47.984;7.964;2023-02-01T17:46:58;98126.50;;;4.77;74.73
43701;BME280;58809;47.984;7.964;2023-02-01T17:50:00;98123.28;;;4.73;74.63
43701;BME280;58809;47.984;7.964;2023-02-01T17:53:02;98113.03;;;4.70;74.95
43701;BME280;58809;47.984;7.964;2023-02-01T17:56:12;98127.00;;;4.71;75.57
43701;BME280;58809;47.984;7.964;2023-02-01T17:59:14;98099.59;;;4.63;76.21
43701;BME280;58809;47.984;7.964;2023-02-01T18:02:22;98091.72;;;4.63;76.41
43701;BME280;58809;47.984;7.964;2023-02-01T18:05:41;98109.34;;;4.61;76.60
43701;BME280;58809;47.984;7.964;2023-02-01T18:08:44;98100.31;;;4.66;76.16
43701;BME280;58809;47.984;7.964;2023-02-01T18:11:46;98090.53;;;4.68;75.91
43701;BME280;58809;47.984;7.964;2023-02-01T18:14:49;98096.47;;;4.70;76.05
43701;BME280;58809;47.984;7.964;2023-02-01T18:17:51;98095.66;;;4.69;75.51
43701;BME280;58809;47.984;7.964;2023-02-01T18:20:52;98103.41;;;4.71;74.88